Search for airport 
image banner adimage banner adimage banner ad
image banner ad

64CA - Tahoe Forest Hospital

Located in Truckee, United States

ICAO - 64CA, IATA -

Data provided by Airmate  

General information

Coordinates: N39°19'27" W120°12'1"
Elevation is 5200 feet MSL.
Magnetic variation is 16° East
View others Airports in California

Operational data

Special qualification required
Current time UTC:
Current local time:
Weather at : KTRK - Truckee-Tahoe ( 5 km )
METAR: KTRK 270515Z AUTO 10003KT 7SM SCT050 OVC100 18/11 A3025 RMK AO2
TAF: KTRK 262341Z 2700/2724 28012KT 4SM FU HZ VCTS BKN025 BKN060CB TEMPO 2700/2702 VRB20G30KT 2SM -TSRA FU BKN025CB OVC050 FM270400 VRB03KT 4SM FU HZ VCSH SCT050 BKN100 FM270900 00000KT 3SM FU HZ BKN120 FM272100 28008G16KT 5SM FU HZ SCT030 BKN050 BKN090
View NOTAMs / SUP AIP / TFR affecting this airport [VIEW]
Communications frequencies: [VIEW]

Runways:

Airport contact information

Address: Truckee United States

Satellite view of 64CA